Time;durP1;ratioP1;P1;durP2;ratioP2;P2;SDS_P1;SDS_P2;PMS_P1;PMS_P2;Temp;Humidity;BMP_temperature;BMP_pressure;BME280_temperature;BME280_humidity;BME280_pressure;Samples;Min_cycle;Max_cycle;Signal;HPM_P1;HPM_P2
2022/01/22 00:00:10;;;;;;;11.63;4.47;;;;;;;-145.18;100.00;46720.94;4990620;28;20047;-72
2022/01/22 00:02:35;;;;;;;13.53;5.40;;;;;;;-145.18;100.00;46717.03;4990419;28;20073;-73
2022/01/22 00:05:01;;;;;;;8.33;4.23;;;;;;;-145.18;100.00;46728.75;4991246;28;20941;-72
2022/01/22 00:07:26;;;;;;;17.93;5.53;;;;;;;-145.18;100.00;46711.19;4990361;28;20046;-72
2022/01/22 00:09:59;;;;;;;11.03;4.40;;;;;;;-145.18;100.00;46732.66;4990373;28;20050;-71
2022/01/22 00:15:08;;;;;;;22.57;6.00;;;;;;;-145.18;100.00;46740.47;4990572;28;20272;-72
2022/01/22 00:17:34;;;;;;;14.00;4.53;;;;;;;-145.18;100.00;46742.44;4989939;28;20700;-72
2022/01/22 00:19:59;;;;;;;13.10;4.53;;;;;;;-145.18;100.00;46754.16;4990243;28;20334;-72
2022/01/22 00:22:28;;;;;;;14.10;4.57;;;;;;;-145.18;100.00;46748.28;4989920;28;20068;-73
2022/01/22 00:24:54;;;;;;;16.57;4.67;;;;;;;-145.18;100.00;46746.34;4990337;28;20042;-72
2022/01/22 00:27:20;;;;;;;17.10;4.33;;;;;;;-145.18;100.00;46761.97;4989940;28;20276;-72
2022/01/22 00:29:46;;;;;;;12.07;3.93;;;;;;;-145.18;100.00;46744.38;4989866;28;20419;-72
2022/01/22 00:32:11;;;;;;;17.23;4.93;;;;;;;-145.18;100.00;46767.84;4989816;28;20492;-72
2022/01/22 00:34:37;;;;;;;16.60;5.17;;;;;;;-145.18;100.00;46752.19;4990339;28;20068;-72
2022/01/22 00:37:03;;;;;;;9.10;2.87;;;;;;;-145.18;100.00;46750.25;4989520;28;20046;-72
2022/01/22 00:39:29;;;;;;;17.43;5.23;;;;;;;-145.18;100.00;46750.25;4989916;28;20475;-72
2022/01/22 00:41:55;;;;;;;12.83;5.43;;;;;;;-145.18;100.00;46756.09;4989423;28;20042;-72
2022/01/22 00:44:20;;;;;;;17.93;4.90;;;;;;;-145.18;100.00;46754.16;4989699;28;20351;-73
2022/01/22 00:46:45;;;;;;;17.23;4.47;;;;;;;-145.18;100.00;46742.44;4990211;28;20113;-72
2022/01/22 00:49:11;;;;;;;23.73;6.47;;;;;;;-145.18;100.00;46742.44;4989817;28;20042;-72
2022/01/22 00:51:36;;;;;;;20.50;5.20;;;;;;;-145.18;100.00;46748.28;4989457;28;20130;-72
2022/01/22 00:54:02;;;;;;;24.47;5.90;;;;;;;-145.18;100.00;46750.25;4989617;28;20472;-72
2022/01/22 00:56:27;;;;;;;9.30;4.87;;;;;;;-145.18;100.00;46748.28;4989231;28;20125;-72
2022/01/22 00:58:52;;;;;;;23.43;5.77;;;;;;;-145.18;100.00;46734.63;4989287;28;20046;-72
2022/01/22 01:01:18;;;;;;;13.77;6.17;;;;;;;-145.18;100.00;46732.66;4989934;28;20495;-72
2022/01/22 01:03:43;;;;;;;17.10;6.37;;;;;;;-145.18;100.00;46717.03;4989644;28;20514;-72
2022/01/22 01:06:09;;;;;;;11.87;6.20;;;;;;;-145.18;100.00;46724.84;4988987;28;20057;-72
2022/01/22 01:08:35;;;;;;;18.77;6.83;;;;;;;-145.18;100.00;46730.72;4987677;28;20046;-72
2022/01/22 01:11:02;;;;;;;20.40;6.63;;;;;;;-145.18;100.00;46711.19;4987627;28;20450;-72
2022/01/22 01:13:29;;;;;;;22.73;6.67;;;;;;;-145.18;100.00;46715.09;4989181;28;20264;-72
2022/01/22 01:16:03;;;;;;;21.70;8.03;;;;;;;-145.18;100.00;46703.38;4989182;28;20290;-73
2022/01/22 01:32:19;;;;;;;29.17;9.83;;;;;;;-145.18;100.00;46679.94;4987258;28;20350;-72
2022/01/22 01:34:47;;;;;;;21.73;8.77;;;;;;;-145.18;100.00;46699.47;4989246;28;20261;-72
2022/01/22 01:37:15;;;;;;;21.80;9.40;;;;;;;-145.18;100.00;46691.66;4988411;28;20350;-72
2022/01/22 01:39:43;;;;;;;27.10;9.80;;;;;;;-145.18;100.00;46701.41;4988887;28;20276;-72
2022/01/22 01:42:13;;;;;;;23.17;9.43;;;;;;;-145.18;100.00;46703.38;4988379;28;20915;-72
2022/01/22 01:44:40;;;;;;;19.97;8.97;;;;;;;-145.18;100.00;46697.50;4988787;28;20283;-72
2022/01/22 01:47:08;;;;;;;23.40;10.47;;;;;;;-145.18;100.00;46691.66;4988304;28;20264;-73
2022/01/22 01:49:35;;;;;;;27.73;11.80;;;;;;;-145.18;100.00;46699.47;4988822;28;20268;-73
2022/01/22 01:52:03;;;;;;;21.33;10.70;;;;;;;-145.18;100.00;46695.56;4987686;28;20272;-72
2022/01/22 01:59:48;;;;;;;26.65;12.27;;;;;;;-145.18;100.00;46691.66;4988688;28;20287;-72
2022/01/22 02:02:14;;;;;;;23.57;11.97;;;;;;;-145.18;100.00;46699.47;4987531;28;20511;-72
2022/01/22 02:04:41;;;;;;;25.37;11.60;;;;;;;-145.18;100.00;46683.84;4988225;28;20268;-72
2022/01/22 02:07:06;;;;;;;23.97;11.77;;;;;;;-145.18;100.00;46693.59;4987988;28;20049;-73
2022/01/22 02:09:33;;;;;;;26.27;11.27;;;;;;;-145.18;100.00;46670.16;4986995;28;20704;-73
2022/01/22 02:12:04;;;;;;;26.60;10.83;;;;;;;-145.18;100.00;46693.59;4988273;28;20117;-72
2022/01/22 02:25:25;;;;;;;20.87;12.23;;;;;;;-145.18;100.00;46683.84;4988419;28;20856;-72
2022/01/22 02:27:51;;;;;;;25.93;11.60;;;;;;;-145.18;100.00;46672.13;4987502;28;20347;-72
2022/01/22 02:30:23;;;;;;;27.77;11.93;;;;;;;-145.18;100.00;46672.13;4988133;28;20279;-72
2022/01/22 02:33:25;;;;;;;31.47;12.03;;;;;;;-145.18;100.00;46666.25;4987196;28;20578;-72
2022/01/22 02:38:22;;;;;;;25.60;13.67;;;;;;;-145.18;100.00;46662.34;4987263;28;20271;-72
2022/01/22 02:40:49;;;;;;;27.87;13.30;;;;;;;-145.18;100.00;46660.41;4988155;28;20096;-72
2022/01/22 02:43:17;;;;;;;24.23;13.43;;;;;;;-145.18;100.00;46656.50;4985971;28;20287;-72
2022/01/22 02:45:45;;;;;;;25.63;13.37;;;;;;;-145.18;100.00;46656.50;4988252;28;20268;-72
2022/01/22 02:48:11;;;;;;;30.83;13.73;;;;;;;-145.18;100.00;46660.41;4987298;28;20767;-72
2022/01/22 02:50:36;;;;;;;31.33;13.60;;;;;;;-145.18;100.00;46648.69;4987932;28;20292;-73
2022/01/22 02:53:07;;;;;;;27.47;14.47;;;;;;;-145.18;100.00;46650.63;4987090;28;20646;-73
2022/01/22 02:55:33;;;;;;;25.67;15.07;;;;;;;-145.18;100.00;46648.69;4987814;28;20046;-73
2022/01/22 02:58:00;;;;;;;34.60;15.67;;;;;;;-145.18;100.00;46650.63;4987717;28;20286;-73
2022/01/22 03:03:16;;;;;;;37.83;18.17;;;;;;;-145.18;100.00;46656.50;5036473;23;20326;-74
2022/01/22 03:05:44;;;;;;;36.00;16.57;;;;;;;-145.18;100.00;46644.78;4989119;28;20734;-72
2022/01/22 03:08:12;;;;;;;40.50;19.17;;;;;;;-145.18;100.00;46648.69;5006759;28;20034;-72
2022/01/22 03:10:39;;;;;;;37.63;17.13;;;;;;;-145.18;100.00;46646.72;5006826;28;20304;-72
2022/01/22 03:18:09;;;;;;;39.27;18.63;;;;;;;-145.18;100.00;46646.72;5010241;28;20128;-72
2022/01/22 03:31:29;;;;;;;38.53;18.60;;;;;;;-145.18;100.00;46636.94;5010820;28;20282;-74
2022/01/22 03:33:54;;;;;;;34.50;17.87;;;;;;;-145.18;100.00;46631.09;5009767;28;20260;-73
2022/01/22 03:36:20;;;;;;;44.83;20.50;;;;;;;-145.18;100.00;46638.91;5010170;28;20477;-74
2022/01/22 03:38:47;;;;;;;38.43;20.37;;;;;;;-145.18;100.00;46638.91;5009800;28;20045;-74
2022/01/22 03:41:13;;;;;;;39.00;19.07;;;;;;;-145.18;100.00;46633.06;5010338;28;20034;-74
2022/01/22 03:43:39;;;;;;;42.03;20.60;;;;;;;-145.18;100.00;46636.94;5009830;28;20264;-74
2022/01/22 03:46:04;;;;;;;49.13;20.53;;;;;;;-145.18;100.00;46633.06;5010745;28;20040;-73
2022/01/22 03:48:30;;;;;;;44.57;20.53;;;;;;;-145.18;100.00;46633.06;4992369;28;20033;-73
2022/01/22 03:50:55;;;;;;;43.53;21.23;;;;;;;-145.18;100.00;46633.06;4992544;28;20053;-73
2022/01/22 03:53:21;;;;;;;52.20;22.23;;;;;;;-145.18;100.00;46633.06;5000405;28;20542;-74
2022/01/22 03:56:06;;;;;;;38.97;21.80;;;;;;;-145.18;100.00;46629.13;4988887;28;20089;-74
2022/01/22 03:58:35;;;;;;;45.55;21.83;;;;;;;-145.18;100.00;46660.41;4990222;28;20061;-73
2022/01/22 04:02:03;;;;;;;42.93;22.17;;;;;;;-145.18;100.00;46660.41;4990387;28;20042;-73
2022/01/22 04:03:59;;;;;;;46.03;21.23;;;;;;;-145.18;100.00;46660.41;4967503;28;20764;-73
2022/01/22 04:08:59;;;;;;;47.83;20.73;;;;;;;-145.18;100.00;46660.41;4970279;28;20335;-73
2022/01/22 04:11:25;;;;;;;48.83;21.57;;;;;;;-145.18;100.00;46660.41;4970897;28;20265;-73
2022/01/22 04:13:57;;;;;;;56.00;21.90;;;;;;;-145.18;100.00;46660.41;4969091;28;20265;-73
2022/01/22 04:16:23;;;;;;;47.47;21.27;;;;;;;-145.18;100.00;46658.44;4970784;28;20057;-73
2022/01/22 04:27:09;;;;;;;48.67;22.17;;;;;;;-145.18;100.00;46652.59;4970462;28;21069;-73
2022/01/22 04:29:35;;;;;;;62.78;23.05;;;;;;;-145.18;100.00;46656.50;4972720;28;21157;-71
2022/01/22 04:32:00;;;;;;;43.23;22.57;;;;;;;-145.18;100.00;46656.50;4987758;28;20129;-71
2022/01/22 04:34:25;;;;;;;54.47;23.83;;;;;;;-145.18;100.00;46654.53;4989284;28;20034;-71
2022/01/22 04:36:51;;;;;;;60.13;24.53;;;;;;;-145.18;100.00;46656.50;4989391;28;20109;-71
2022/01/22 04:39:19;;;;;;;63.17;25.67;;;;;;;-145.18;100.00;46656.50;4989137;28;20249;-72
2022/01/22 04:41:45;;;;;;;56.10;25.07;;;;;;;-145.18;100.00;46660.41;4989226;28;20035;-71
2022/01/22 04:44:10;;;;;;;55.67;25.93;;;;;;;-145.18;100.00;46656.50;4989267;28;20890;-71
2022/01/22 04:52:30;;;;;;;54.77;25.23;;;;;;;-145.18;100.00;46658.44;4988715;28;20045;-71
2022/01/22 04:57:36;;;;;;;65.27;25.93;;;;;;;-145.18;100.00;46660.41;4989076;28;20825;-73
2022/01/22 05:00:05;;;;;;;59.67;25.23;;;;;;;-145.18;100.00;46660.41;4988898;28;20747;-71
2022/01/22 05:02:30;;;;;;;49.27;23.83;;;;;;;-145.18;100.00;46660.41;4988590;28;20299;-71
2022/01/22 05:04:56;;;;;;;56.60;24.80;;;;;;;-145.18;100.00;46660.41;4988697;28;20363;-71
2022/01/22 05:07:21;;;;;;;56.03;23.37;;;;;;;-145.18;100.00;46660.41;4989082;28;20045;-71
2022/01/22 05:09:47;;;;;;;47.00;23.70;;;;;;;-145.18;100.00;46660.41;4988597;28;20513;-71
2022/01/22 05:12:12;;;;;;;50.57;22.60;;;;;;;-145.18;100.00;46660.41;4988480;28;20049;-71
2022/01/22 05:14:37;;;;;;;53.10;23.17;;;;;;;-145.18;100.00;46660.41;4971811;28;20145;-71
2022/01/22 05:17:06;;;;;;;53.47;21.57;;;;;;;-145.18;100.00;46660.41;4971173;28;20129;-71
2022/01/22 05:22:20;;;;;;;45.93;18.70;;;;;;;-145.18;100.00;46660.41;4966737;28;20265;-73
2022/01/22 05:24:51;;;;;;;46.37;17.30;;;;;;;-145.18;100.00;46660.41;4982724;28;20618;-73
2022/01/22 05:30:13;;;;;;;44.63;18.07;;;;;;;-145.18;100.00;46660.41;4982117;28;20280;-73
2022/01/22 05:32:56;;;;;;;43.77;15.70;;;;;;;-145.18;100.00;46660.41;4981351;28;20292;-73
2022/01/22 05:38:07;;;;;;;37.43;13.83;;;;;;;-145.18;100.00;46660.41;4987227;28;20787;-73
2022/01/22 05:40:33;;;;;;;33.93;15.53;;;;;;;-145.18;100.00;46660.41;4988133;28;20633;-73
2022/01/22 05:42:58;;;;;;;45.23;15.40;;;;;;;-145.18;100.00;46660.41;4969927;28;20280;-73
2022/01/22 05:45:24;;;;;;;38.57;15.80;;;;;;;-145.18;100.00;46660.41;4988035;28;20323;-73
2022/01/22 05:47:49;;;;;;;39.43;15.40;;;;;;;-145.18;100.00;46660.41;4987840;28;20413;-73
2022/01/22 05:50:28;;;;;;;36.67;16.37;;;;;;;-145.18;100.00;46660.41;4988453;28;20043;-72
2022/01/22 05:53:01;;;;;;;43.77;16.73;;;;;;;-145.18;100.00;46660.41;4987774;28;20097;-71
2022/01/22 06:00:36;;;;;;;34.17;16.03;;;;;;;-145.18;100.00;46660.41;4973258;28;20052;-72
2022/01/22 06:03:01;;;;;;;38.63;17.10;;;;;;;-145.18;100.00;46660.41;4987312;28;20280;-72
2022/01/22 06:05:27;;;;;;;34.53;17.10;;;;;;;-145.18;100.00;46660.41;4970857;28;20043;-72
2022/01/22 06:07:52;;;;;;;30.93;15.77;;;;;;;-145.18;100.00;46660.41;4987330;28;20034;-72
2022/01/22 06:10:18;;;;;;;25.87;14.47;;;;;;;-145.18;100.00;46660.41;4988643;28;20117;-72
2022/01/22 06:15:17;;;;;;;35.43;14.83;;;;;;;-145.18;100.00;46658.44;4986025;28;20053;-73
2022/01/22 06:17:42;;;;;;;37.23;15.23;;;;;;;-145.18;100.00;46660.41;4983988;28;20272;-72
2022/01/22 06:20:13;;;;;;;27.20;13.83;;;;;;;-145.18;100.00;46658.44;4987333;28;20045;-73
2022/01/22 06:22:42;;;;;;;31.67;13.50;;;;;;;-145.18;100.00;46660.41;4978511;28;20053;-72
2022/01/22 06:25:08;;;;;;;41.83;14.50;;;;;;;-145.18;100.00;46660.41;4974983;28;20292;-72
2022/01/22 06:27:33;;;;;;;31.53;14.17;;;;;;;-145.18;100.00;46660.41;4976101;28;20281;-73
2022/01/22 06:29:59;;;;;;;34.60;14.33;;;;;;;-145.18;100.00;46658.44;4968690;28;20077;-72
2022/01/22 06:32:25;;;;;;;33.60;15.30;;;;;;;-145.18;100.00;46660.41;4968174;28;20053;-73
2022/01/22 06:34:51;;;;;;;30.63;13.37;;;;;;;-145.18;100.00;46658.44;4968169;28;20043;-72
2022/01/22 06:37:16;;;;;;;32.90;12.20;;;;;;;-145.18;100.00;46660.41;4968589;28;20615;-72
2022/01/22 06:42:26;;;;;;;27.37;11.03;;;;;;;-145.18;100.00;46654.53;4968397;28;20053;-72
2022/01/22 06:44:51;;;;;;;37.63;12.60;;;;;;;-145.18;100.00;46658.44;4967936;28;20367;-72
2022/01/22 06:47:16;;;;;;;25.77;11.20;;;;;;;-145.18;100.00;46654.53;4968877;28;20818;-72
2022/01/22 06:49:42;;;;;;;32.93;10.80;;;;;;;-145.18;100.00;46656.50;4972028;28;20039;-72
2022/01/22 06:52:07;;;;;;;19.37;10.27;;;;;;;-145.18;100.00;46654.53;4972959;28;20062;-72
2022/01/22 06:54:33;;;;;;;24.03;9.30;;;;;;;-145.18;100.00;46656.50;4972017;28;20043;-72
2022/01/22 06:56:58;;;;;;;31.67;9.97;;;;;;;-145.18;100.00;46658.44;4971897;28;20038;-72
2022/01/22 06:59:23;;;;;;;21.33;9.53;;;;;;;-145.18;100.00;46656.50;4972062;28;20383;-72
2022/01/22 07:01:54;;;;;;;22.13;9.10;;;;;;;-145.18;100.00;46654.53;4971932;28;20126;-72
2022/01/22 07:04:20;;;;;;;18.77;7.67;;;;;;;-145.18;100.00;46656.50;4971770;28;20495;-72
2022/01/22 07:06:45;;;;;;;20.37;8.67;;;;;;;-145.18;100.00;46656.50;4972006;28;20288;-72
2022/01/22 07:09:11;;;;;;;29.67;8.40;;;;;;;-145.18;100.00;46656.50;4973297;28;20108;-72
2022/01/22 07:11:36;;;;;;;20.13;7.03;;;;;;;-145.18;100.00;46642.81;4974520;28;20524;-72
2022/01/22 07:14:03;;;;;;;24.60;6.50;;;;;;;-145.18;100.00;46656.50;4980421;28;20038;-72
2022/01/22 07:16:29;;;;;;;13.90;5.13;;;;;;;-145.18;100.00;46658.44;4971959;28;20062;-72
2022/01/22 07:18:59;;;;;;;16.43;3.60;;;;;;;-145.18;100.00;46660.41;4970986;28;20352;-72
2022/01/22 07:21:25;;;;;;;14.60;3.33;;;;;;;-145.18;100.00;46654.53;4971164;28;20101;-72
2022/01/22 07:24:22;;;;;;;9.43;3.17;;;;;;;-145.18;100.00;46654.53;4971408;28;20672;-72
2022/01/22 07:26:38;;;;;;;15.00;3.40;;;;;;;-145.18;100.00;46640.88;4972349;28;20047;-72
2022/01/22 07:29:04;;;;;;;10.67;3.30;;;;;;;-145.18;100.00;46652.59;4982742;28;20322;-72
2022/01/22 07:31:29;;;;;;;14.43;3.40;;;;;;;-145.18;100.00;46652.59;4980997;28;20047;-72
2022/01/22 07:33:55;;;;;;;15.40;3.43;;;;;;;-145.18;100.00;46660.41;4972874;28;20046;-72
2022/01/22 07:36:20;;;;;;;13.00;2.93;;;;;;;-145.18;100.00;46660.41;4990563;28;20046;-72
2022/01/22 07:38:46;;;;;;;8.60;3.40;;;;;;;-145.18;100.00;46652.59;4990411;28;20915;-72
2022/01/22 07:41:12;;;;;;;12.53;3.17;;;;;;;-145.18;100.00;46660.41;4990617;28;20062;-72
2022/01/22 07:43:38;;;;;;;10.03;3.00;;;;;;;-145.18;100.00;46660.41;5005327;28;20061;-72
2022/01/22 07:46:05;;;;;;;8.43;2.80;;;;;;;-145.18;100.00;46660.41;4990301;28;20284;-71
2022/01/22 07:48:31;;;;;;;9.63;2.63;;;;;;;-145.18;100.00;46660.41;4989791;28;20264;-72
2022/01/22 07:50:56;;;;;;;12.43;3.10;;;;;;;-145.18;100.00;46660.41;4989517;28;20287;-72
2022/01/22 07:53:24;;;;;;;15.07;2.90;;;;;;;-145.18;100.00;46660.41;4990795;28;20118;-72
2022/01/22 07:55:49;;;;;;;9.20;3.27;;;;;;;-145.18;100.00;46660.41;4990245;28;20035;-72
2022/01/22 07:58:15;;;;;;;10.27;3.67;;;;;;;-145.18;100.00;46660.41;4985018;28;20276;-71
2022/01/22 08:00:40;;;;;;;11.30;3.60;;;;;;;-145.18;100.00;46660.41;4969929;28;20767;-72
2022/01/22 08:03:06;;;;;;;7.43;3.40;;;;;;;-145.18;100.00;46660.41;4970362;28;20042;-72
2022/01/22 08:05:32;;;;;;;13.07;3.30;;;;;;;-145.18;100.00;46660.41;4978323;28;20125;-72
2022/01/22 08:07:58;;;;;;;11.40;3.53;;;;;;;-145.18;100.00;46660.41;4982311;28;20379;-72
2022/01/22 08:10:23;;;;;;;15.87;3.30;;;;;;;-145.18;100.00;46633.06;4975926;28;20122;-72
2022/01/22 08:12:50;;;;;;;17.13;4.07;;;;;;;-145.18;100.00;46660.41;4979320;28;20070;-72
2022/01/22 08:15:16;;;;;;;11.33;3.70;;;;;;;-145.18;100.00;46635.00;4986345;28;20850;-72
2022/01/22 08:17:42;;;;;;;11.93;4.53;;;;;;;-145.18;100.00;46631.09;4989923;28;20279;-72
2022/01/22 08:20:12;;;;;;;17.77;4.10;;;;;;;-145.18;100.00;46660.41;4989471;28;20359;-72
2022/01/22 08:22:37;;;;;;;19.47;4.10;;;;;;;-145.18;100.00;46631.09;4989631;28;20276;-72
2022/01/22 08:25:03;;;;;;;12.03;4.07;;;;;;;-145.18;100.00;46660.41;4989264;28;20367;-73
2022/01/22 08:29:54;;;;;;;17.47;4.63;;;;;;;-145.18;100.00;46631.09;4976904;28;20577;-72
2022/01/22 08:37:54;;;;;;;15.23;4.67;;;;;;;-145.18;100.00;46629.13;4969941;28;20276;-72
2022/01/22 08:40:19;;;;;;;18.37;4.17;;;;;;;-145.18;100.00;46633.06;4975769;28;20284;-72
2022/01/22 08:42:47;;;;;;;13.40;4.20;;;;;;;-145.18;100.00;46660.41;4988018;28;20641;-73
2022/01/22 08:45:12;;;;;;;19.30;4.80;;;;;;;-145.18;100.00;46627.19;4988926;28;20042;-72
2022/01/22 08:47:39;;;;;;;14.97;4.17;;;;;;;-145.18;100.00;46660.41;4988880;28;20275;-72
2022/01/22 08:50:05;;;;;;;18.07;3.53;;;;;;;-145.18;100.00;46627.19;4975786;28;20056;-72
2022/01/22 08:52:34;;;;;;;14.37;3.70;;;;;;;-145.18;100.00;46627.19;4986879;28;20272;-72
2022/01/22 08:55:00;;;;;;;14.10;3.70;;;;;;;-145.18;100.00;46633.06;4988831;28;20272;-72
2022/01/22 08:57:26;;;;;;;16.63;4.47;;;;;;;-145.18;100.00;46627.19;4971590;28;20621;-72
2022/01/22 08:59:51;;;;;;;13.37;5.33;;;;;;;-145.18;100.00;46631.09;4972688;28;20668;-72
2022/01/22 09:02:16;;;;;;;14.40;4.33;;;;;;;-145.18;100.00;46629.13;4968977;28;20276;-72
2022/01/22 09:04:42;;;;;;;19.40;4.93;;;;;;;-145.18;100.00;46660.41;4975424;28;20051;-72
2022/01/22 09:07:08;;;;;;;17.80;5.50;;;;;;;-145.18;100.00;46629.13;4989562;28;20449;-71
2022/01/22 09:09:36;;;;;;;10.90;4.83;;;;;;;-145.18;100.00;46627.19;4988291;28;20066;-72
2022/01/22 09:12:04;;;;;;;13.43;4.50;;;;;;;-145.18;100.00;46635.00;4987616;28;20077;-72
2022/01/22 09:14:29;;;;;;;15.57;5.17;;;;;;;-145.18;100.00;46629.13;4988268;28;20946;-72
2022/01/22 09:16:56;;;;;;;16.63;5.93;;;;;;;-145.18;100.00;46627.19;4982843;28;20276;-72
2022/01/22 09:19:27;;;;;;;33.43;13.00;;;;;;;-145.18;100.00;46636.94;4974275;28;20487;-72
2022/01/22 09:21:52;;;;;;;34.07;13.87;;;;;;;-145.18;100.00;46629.13;4975646;28;20654;-72
2022/01/22 09:24:18;;;;;;;11.53;5.87;;;;;;;-145.18;100.00;46633.06;4981251;28;20284;-72
2022/01/22 09:26:43;;;;;;;14.97;6.83;;;;;;;-145.18;100.00;46627.19;4980214;28;20468;-71
2022/01/22 09:29:09;;;;;;;16.30;6.67;;;;;;;-145.18;100.00;46640.88;4987573;28;20043;-71
2022/01/22 09:31:35;;;;;;;19.70;6.63;;;;;;;-145.18;100.00;46633.06;4982166;28;20141;-71
2022/01/22 09:34:02;;;;;;;22.70;7.47;;;;;;;-145.18;100.00;46636.94;4984067;28;20391;-72
2022/01/22 09:36:29;;;;;;;23.17;8.83;;;;;;;-145.18;100.00;46635.00;4988171;28;20042;-71
2022/01/22 09:38:55;;;;;;;26.80;8.47;;;;;;;-145.18;100.00;46631.09;4987525;28;20303;-71
2022/01/22 09:41:24;;;;;;;18.10;8.60;;;;;;;-145.18;100.00;46636.94;4988418;28;20314;-72
2022/01/22 09:43:50;;;;;;;21.37;8.10;;;;;;;-145.18;100.00;46631.09;4986990;28;20263;-72
2022/01/22 09:46:16;;;;;;;23.33;9.00;;;;;;;-145.18;100.00;46633.06;4986462;28;20363;-72
2022/01/22 09:48:44;;;;;;;22.70;8.53;;;;;;;-145.18;100.00;46635.00;4975879;28;20295;-71
2022/01/22 09:51:11;;;;;;;19.50;9.00;;;;;;;-145.18;100.00;46633.06;4974775;28;20285;-72
2022/01/22 09:53:38;;;;;;;22.77;9.00;;;;;;;-145.18;100.00;46636.94;4968136;28;20272;-72
2022/01/22 09:56:04;;;;;;;22.90;8.83;;;;;;;-145.18;100.00;46633.06;4968525;28;20269;-72
2022/01/22 09:58:30;;;;;;;34.77;9.40;;;;;;;-145.18;100.00;46640.88;4967963;28;20273;-74
2022/01/22 10:01:18;;;;;;;20.00;8.43;;;;;;;-145.18;100.00;46644.78;4968155;28;20114;-74
2022/01/22 10:03:43;;;;;;;26.77;8.87;;;;;;;-145.18;100.00;46635.00;4968308;28;20928;-74
2022/01/22 10:06:16;;;;;;;22.57;8.93;;;;;;;-145.18;100.00;46638.91;4968253;28;20288;-74
2022/01/22 10:08:42;;;;;;;25.40;9.90;;;;;;;-145.18;100.00;46629.13;4968299;28;20384;-74
2022/01/22 10:11:16;;;;;;;22.03;8.47;;;;;;;-145.18;100.00;46633.06;4967055;28;20285;-74
2022/01/22 10:13:47;;;;;;;16.17;8.30;;;;;;;-145.18;100.00;46636.94;4968327;28;20471;-74
2022/01/22 10:16:18;;;;;;;16.87;8.60;;;;;;;-145.18;100.00;46635.00;4978969;28;20351;-74
2022/01/22 10:18:43;;;;;;;29.73;8.50;;;;;;;-145.18;100.00;46636.94;4986812;28;21094;-74
2022/01/22 10:21:11;;;;;;;21.67;8.37;;;;;;;-145.18;100.00;46638.91;4987273;28;20318;-74
2022/01/22 10:23:39;;;;;;;15.73;7.70;;;;;;;-145.18;100.00;46635.00;4987466;28;20046;-74
2022/01/22 10:26:08;;;;;;;13.73;7.07;;;;;;;-145.18;100.00;46636.94;4987456;28;20282;-73
2022/01/22 10:28:48;;;;;;;18.27;7.87;;;;;;;-145.18;100.00;46648.69;4987197;28;20715;-73
2022/01/22 10:31:21;;;;;;;20.27;8.97;;;;;;;-145.18;100.00;46640.88;4986958;28;20322;-74
2022/01/22 10:34:09;;;;;;;17.37;8.63;;;;;;;-145.18;100.00;46642.81;4986538;28;20353;-73
2022/01/22 10:36:35;;;;;;;17.23;7.83;;;;;;;-145.18;100.00;46636.94;4983831;28;20286;-73
2022/01/22 10:39:04;;;;;;;18.93;8.73;;;;;;;-145.18;100.00;46652.59;4982513;28;20285;-73
2022/01/22 10:41:42;;;;;;;20.30;9.53;;;;;;;-145.18;100.00;46640.88;4972673;28;20050;-73
2022/01/22 10:44:20;;;;;;;17.80;9.17;;;;;;;-145.18;100.00;46640.88;4986846;28;20303;-74
2022/01/22 10:49:22;;;;;;;19.97;9.13;;;;;;;-145.18;100.00;46638.91;4986994;28;20276;-74
2022/01/22 10:51:55;;;;;;;22.07;9.47;;;;;;;-145.18;100.00;46636.94;4987579;28;20042;-73
2022/01/22 10:54:25;;;;;;;23.00;10.20;;;;;;;-145.18;100.00;46636.94;4940412;28;20268;-74
2022/01/22 10:56:52;;;;;;;18.67;9.27;;;;;;;-145.18;100.00;46633.06;4985736;28;20306;-74
2022/01/22 10:59:22;;;;;;;19.60;10.33;;;;;;;-145.18;100.00;46631.09;4986997;28;20272;-74
2022/01/22 11:01:53;;;;;;;21.70;10.63;;;;;;;-145.18;100.00;46633.06;4986412;28;20785;-74
2022/01/22 11:04:29;;;;;;;20.60;11.73;;;;;;;-145.18;100.00;46640.88;4986627;28;20466;-74
2022/01/22 11:07:03;;;;;;;21.10;10.30;;;;;;;-145.18;100.00;46635.00;4968760;28;20307;-74
2022/01/22 11:09:30;;;;;;;23.47;10.27;;;;;;;-145.18;100.00;46625.22;4969987;28;20331;-74
2022/01/22 11:11:56;;;;;;;22.63;10.10;;;;;;;-145.18;100.00;46623.28;4986948;28;20280;-74
2022/01/22 11:14:22;;;;;;;21.47;9.53;;;;;;;-145.18;100.00;46642.81;4986902;28;20269;-74
2022/01/22 11:16:49;;;;;;;27.73;9.83;;;;;;;-145.18;100.00;46633.06;4986829;28;20366;-74
2022/01/22 11:19:20;;;;;;;22.43;10.00;;;;;;;-145.18;100.00;46633.06;4986808;28;20045;-75
2022/01/22 11:21:49;;;;;;;24.13;11.93;;;;;;;-145.18;100.00;46640.88;4987055;28;20760;-75
2022/01/22 11:24:19;;;;;;;18.90;10.73;;;;;;;-145.18;100.00;46631.09;4986806;28;20330;-75
2022/01/22 11:26:50;;;;;;;24.03;10.37;;;;;;;-145.18;100.00;46636.94;4987172;28;20292;-74
2022/01/22 11:29:16;;;;;;;25.53;9.70;;;;;;;-145.18;100.00;46635.00;4987072;28;20288;-74
2022/01/22 11:31:45;;;;;;;22.07;9.00;;;;;;;-145.18;100.00;46644.78;4987147;28;20791;-74
2022/01/22 11:34:13;;;;;;;19.03;9.73;;;;;;;-145.18;100.00;46635.00;4982976;28;20717;-74
2022/01/22 11:36:54;;;;;;;21.07;9.83;;;;;;;-145.18;100.00;46635.00;4991968;28;20292;-74
2022/01/22 11:39:23;;;;;;;20.07;10.30;;;;;;;-145.18;100.00;46640.88;4985876;28;20361;-74
2022/01/22 11:41:57;;;;;;;24.63;12.20;;;;;;;-145.18;100.00;46644.78;4979718;28;20799;-74
2022/01/22 11:44:33;;;;;;;24.33;11.83;;;;;;;-145.18;100.00;46635.00;4980718;28;20780;-74
2022/01/22 11:47:15;;;;;;;;;;;;;;;-145.18;100.00;46636.94;4980145;28;20890;-74
2022/01/22 11:50:06;;;;;;;19.60;11.57;;;;;;;-145.18;100.00;46650.63;4980154;28;19975;-74
2022/01/22 11:52:39;;;;;;;27.90;12.47;;;;;;;-145.18;100.00;46638.91;4967622;28;20292;-74
2022/01/22 11:55:14;;;;;;;25.67;12.80;;;;;;;-145.18;100.00;46642.81;4982635;28;20287;-74
2022/01/22 11:57:41;;;;;;;29.10;11.70;;;;;;;-145.18;100.00;46640.88;4973698;28;20268;-74
2022/01/22 12:00:17;;;;;;;29.17;14.17;;;;;;;-145.18;100.00;46638.91;4970197;28;20284;-74
2022/01/22 12:02:42;;;;;;;38.00;14.45;;;;;;;-145.18;100.00;46633.06;4980692;28;20280;-74
2022/01/22 12:05:08;;;;;;;30.57;15.10;;;;;;;-145.18;100.00;46636.94;4979407;28;20047;-75
2022/01/22 12:07:37;;;;;;;28.27;14.80;;;;;;;-145.18;100.00;46635.00;4993917;28;20043;-75
2022/01/22 12:15:30;;;;;;;30.87;14.23;;;;;;;-145.18;100.00;46631.09;4980063;28;20278;-75
2022/01/22 12:18:05;;;;;;;35.93;16.13;;;;;;;-145.18;100.00;46631.09;4978259;28;20698;-75
2022/01/22 12:23:02;;;;;;;31.97;15.37;;;;;;;-145.18;100.00;46633.06;4969859;28;20304;-74
2022/01/22 12:25:30;;;;;;;29.87;16.60;;;;;;;-145.18;100.00;46631.09;4969823;28;20256;-75
2022/01/22 12:27:58;;;;;;;29.00;17.07;;;;;;;-145.18;100.00;46625.22;4970171;28;20269;-74
2022/01/22 12:30:42;;;;;;;30.17;17.80;;;;;;;-145.18;100.00;46627.19;4969991;28;20728;-75
2022/01/22 12:33:12;;;;;;;33.70;17.40;;;;;;;-145.18;100.00;46635.00;4969879;28;20796;-74
2022/01/22 12:35:48;;;;;;;34.47;17.87;;;;;;;-145.18;100.00;46633.06;4969465;28;20271;-75
2022/01/22 12:38:22;;;;;;;37.88;18.05;;;;;;;-145.18;100.00;46636.94;4970267;28;20401;-74
2022/01/22 12:40:57;;;;;;;44.53;22.60;;;;;;;-145.18;100.00;46629.13;4969241;28;20046;-74
2022/01/22 12:43:31;;;;;;;34.37;20.33;;;;;;;-145.18;100.00;46625.22;4969591;28;20279;-74
2022/01/22 12:46:02;;;;;;;39.63;21.73;;;;;;;-145.18;100.00;46636.94;4969144;28;21015;-74
2022/01/22 12:48:31;;;;;;;40.07;21.37;;;;;;;-145.18;100.00;46633.06;4969870;28;20277;-74
2022/01/22 12:51:01;;;;;;;38.33;21.07;;;;;;;-145.18;100.00;46635.00;4969702;28;20280;-75
2022/01/22 12:53:27;;;;;;;41.40;21.63;;;;;;;-145.18;100.00;46627.19;4970237;28;20261;-74